Time;durP1;ratioP1;P1;durP2;ratioP2;P2;SDS_P1;SDS_P2;PMS_P1;PMS_P2;Temp;Humidity;BMP_temperature;BMP_pressure;BME280_temperature;BME280_humidity;BME280_pressure;Samples;Min_cycle;Max_cycle;Signal;HPM_P1;HPM_P2
2022/01/15 00:00:24;;;;;;;10.83;7.80;;;;;;;3.22;69.98;101947.22;5026934;28;20412;-79
2022/01/15 00:02:51;;;;;;;9.70;8.17;;;;;;;4.95;70.36;102240.34;5013053;28;20066;-79
2022/01/15 00:05:20;;;;;;;13.17;8.93;;;;;;;4.92;70.46;102242.16;4990972;28;20042;-79
2022/01/15 00:07:48;;;;;;;10.73;8.67;;;;;;;4.90;70.64;102230.88;5007928;28;20509;-79
2022/01/15 00:10:17;;;;;;;15.07;9.17;;;;;;;4.24;70.61;102111.56;5020493;28;20501;-78
2022/01/15 00:12:44;;;;;;;14.97;8.47;;;;;;;4.97;70.44;102233.25;5030405;28;20076;-79
2022/01/15 00:15:16;;;;;;;12.93;8.30;;;;;;;4.86;71.01;102237.16;5030164;28;20087;-79
2022/01/15 00:17:47;;;;;;;14.30;8.87;;;;;;;4.89;70.96;102237.03;5028772;28;20081;-79
2022/01/15 00:20:16;;;;;;;14.33;9.13;;;;;;;4.39;70.10;102146.91;5027317;28;20049;-79
2022/01/15 00:22:43;;;;;;;19.40;10.40;;;;;;;4.84;70.66;102225.84;5026744;28;20139;-78
2022/01/15 00:25:13;;;;;;;14.57;8.60;;;;;;;4.60;70.69;102193.44;5026712;28;20072;-80
2022/01/15 00:27:40;;;;;;;14.40;9.03;;;;;;;4.82;70.66;102234.72;5026691;28;20095;-78
2022/01/15 00:30:08;;;;;;;11.73;8.37;;;;;;;4.76;70.78;102220.03;5026428;28;20136;-80
2022/01/15 00:32:38;;;;;;;12.23;8.53;;;;;;;4.73;71.14;102225.38;5027388;28;20056;-79
2022/01/15 00:35:06;;;;;;;10.93;7.47;;;;;;;4.48;71.00;102168.47;5026331;28;20048;-79
2022/01/15 00:37:33;;;;;;;8.10;6.97;;;;;;;3.36;71.03;101978.22;5026763;28;20057;-79
2022/01/15 00:40:02;;;;;;;16.20;7.50;;;;;;;4.76;70.92;102204.22;5027275;28;20059;-79
2022/01/15 00:42:30;;;;;;;8.20;6.97;;;;;;;4.61;71.29;102184.66;5026494;28;20080;-79
2022/01/15 00:44:58;;;;;;;7.80;6.73;;;;;;;4.62;71.67;102202.13;5025340;28;20320;-79
2022/01/15 00:47:28;;;;;;;8.87;6.70;;;;;;;4.50;71.77;102197.34;5025856;28;20053;-79
2022/01/15 00:49:55;;;;;;;8.40;7.03;;;;;;;4.56;71.91;102201.50;5025851;28;20054;-79
2022/01/15 00:52:22;;;;;;;8.00;6.30;;;;;;;4.52;71.60;102190.25;5027126;28;20433;-79
2022/01/15 00:54:48;;;;;;;7.77;6.97;;;;;;;4.46;72.14;102179.94;5027017;28;20423;-79
2022/01/15 00:57:15;;;;;;;7.73;6.23;;;;;;;4.22;71.91;102132.66;5026038;28;20115;-79
2022/01/15 00:59:42;;;;;;;7.20;5.90;;;;;;;4.56;72.35;102178.69;5010018;28;20080;-80
2022/01/15 01:02:09;;;;;;;6.67;5.97;;;;;;;4.39;72.50;102153.03;5034492;28;20068;-79
2022/01/15 01:04:36;;;;;;;6.70;5.97;;;;;;;4.52;72.50;102178.88;5030248;28;20135;-79
2022/01/15 01:07:04;;;;;;;6.57;5.93;;;;;;;4.52;72.46;102184.16;5046127;28;20137;-79
2022/01/15 01:09:53;;;;;;;12.00;7.00;;;;;;;4.47;72.33;102177.28;5046058;28;20044;-79
2022/01/15 01:23:18;;;;;;;7.03;5.55;;;;;;;4.18;72.79;102138.94;5046897;28;20055;-80
2022/01/15 01:25:48;;;;;;;6.87;6.07;;;;;;;3.88;72.50;102098.03;5045210;28;20496;-79
2022/01/15 01:28:29;;;;;;;8.43;5.70;;;;;;;4.33;72.90;102174.31;5045886;28;20405;-79
2022/01/15 01:31:06;;;;;;;7.07;6.10;;;;;;;3.79;73.16;102078.22;5046543;28;20127;-79
2022/01/15 01:33:37;;;;;;;7.37;5.53;;;;;;;4.40;73.65;102174.94;5028745;28;20348;-81
2022/01/15 01:36:13;;;;;;;6.90;5.30;;;;;;;4.37;73.19;102168.03;5045269;28;20088;-79
2022/01/15 01:38:56;;;;;;;9.60;5.57;;;;;;;4.47;73.05;102173.78;5046143;28;20155;-80
2022/01/15 01:41:23;;;;;;;7.27;5.37;;;;;;;4.43;73.50;102170.41;5029097;28;20138;-80
2022/01/15 01:44:02;;;;;;;5.83;5.27;;;;;;;4.07;73.29;102093.78;5046236;28;20080;-79
2022/01/15 01:46:42;;;;;;;6.87;5.77;;;;;;;4.36;73.53;102137.38;5028718;28;20052;-80
2022/01/15 01:49:13;;;;;;;6.23;5.57;;;;;;;4.38;72.56;102134.69;5028231;28;20107;-79
2022/01/15 01:51:41;;;;;;;7.40;5.37;;;;;;;4.28;72.54;102115.78;5028331;28;20053;-79
2022/01/15 01:54:11;;;;;;;6.30;5.37;;;;;;;4.39;72.82;102131.13;5028319;28;20081;-79
2022/01/15 01:56:39;;;;;;;8.00;5.67;;;;;;;4.45;72.90;102137.03;5028263;28;20411;-79
2022/01/15 01:59:06;;;;;;;6.67;4.80;;;;;;;4.44;72.61;102140.59;5028541;28;20370;-79
2022/01/15 02:01:33;;;;;;;5.50;4.67;;;;;;;4.34;73.01;102117.31;5044603;28;20484;-79
2022/01/15 02:04:01;;;;;;;5.33;4.67;;;;;;;4.23;73.16;102094.06;5028528;28;20692;-80
2022/01/15 02:06:27;;;;;;;6.17;4.10;;;;;;;4.34;72.70;102107.66;5028765;28;20061;-78
2022/01/15 02:08:55;;;;;;;5.27;4.33;;;;;;;4.49;73.36;102117.59;5028290;28;20059;-81
2022/01/15 02:11:26;;;;;;;6.00;4.50;;;;;;;3.93;73.06;102009.38;5046322;28;20057;-80
2022/01/15 02:13:52;;;;;;;4.27;3.80;;;;;;;4.34;72.91;102076.09;5028100;28;20393;-81
2022/01/15 02:16:19;;;;;;;6.00;3.87;;;;;;;4.47;72.80;102090.50;5028200;28;20077;-80
2022/01/15 02:18:46;;;;;;;4.50;3.60;;;;;;;4.52;73.18;102090.31;5027990;28;20132;-79
2022/01/15 02:23:44;;;;;;;4.70;3.93;;;;;;;4.03;72.59;102008.97;5045695;28;20049;-80
2022/01/15 02:26:15;;;;;;;6.50;3.75;;;;;;;4.42;72.78;102068.78;5044667;28;20566;-81
2022/01/15 02:28:45;;;;;;;5.93;4.33;;;;;;;4.57;73.08;102083.09;5046028;28;20512;-81
2022/01/15 02:31:15;;;;;;;5.47;4.13;;;;;;;4.07;72.41;101971.13;5028226;28;20307;-81
2022/01/15 02:33:44;;;;;;;4.60;4.00;;;;;;;4.53;72.07;102051.72;5028220;28;20057;-80
2022/01/15 02:36:14;;;;;;;4.80;4.00;;;;;;;4.65;72.34;102074.88;5027857;28;20473;-79
2022/01/15 02:38:42;;;;;;;4.13;3.73;;;;;;;4.67;72.40;102075.69;5045966;28;20108;-79
2022/01/15 02:41:09;;;;;;;8.87;4.13;;;;;;;4.56;72.42;102062.09;5049651;28;20341;-80
2022/01/15 02:43:36;;;;;;;4.23;3.83;;;;;;;4.40;72.41;102028.53;5031912;28;20343;-80
2022/01/15 02:49:12;;;;;;;5.40;3.90;;;;;;;3.98;72.45;101976.75;5046755;28;20049;-80
2022/01/15 02:51:38;;;;;;;6.43;4.07;;;;;;;4.53;72.43;102059.59;5029747;28;20047;-80
2022/01/15 02:54:05;;;;;;;5.67;3.93;;;;;;;4.52;72.69;102057.91;5047628;28;20060;-80
2022/01/15 02:56:34;;;;;;;4.80;4.10;;;;;;;4.46;72.75;102065.09;5049209;28;20059;-80
2022/01/15 02:59:03;;;;;;;6.40;4.20;;;;;;;4.24;73.04;102030.06;5049170;28;20135;-80
2022/01/15 03:01:31;;;;;;;4.87;3.50;;;;;;;4.26;73.21;102028.22;5049237;28;20132;-81
2022/01/15 03:03:58;;;;;;;7.57;3.70;;;;;;;4.06;72.82;101992.22;5049363;28;20049;-81
2022/01/15 03:06:25;;;;;;;4.33;3.73;;;;;;;4.28;72.70;102018.50;5048311;28;20131;-80
2022/01/15 03:08:53;;;;;;;4.60;3.40;;;;;;;4.48;72.46;102036.97;5032694;28;20148;-80
2022/01/15 03:11:27;;;;;;;3.77;3.37;;;;;;;4.53;72.51;102038.56;5032217;28;20053;-80
2022/01/15 03:13:54;;;;;;;4.20;3.43;;;;;;;4.49;72.44;102036.06;5031759;28;20139;-80
2022/01/15 03:16:22;;;;;;;5.57;3.37;;;;;;;4.53;72.25;102028.88;5047927;28;20527;-79
2022/01/15 03:18:50;;;;;;;4.43;3.20;;;;;;;4.53;72.68;102025.41;5048037;28;20052;-80
2022/01/15 03:21:17;;;;;;;5.60;3.40;;;;;;;3.76;72.65;101907.56;5049893;28;20073;-79
2022/01/15 03:23:45;;;;;;;20.03;4.43;;;;;;;4.50;72.47;102008.84;5049080;28;20103;-81
2022/01/15 03:26:13;;;;;;;8.93;3.77;;;;;;;4.34;72.33;101978.81;5031375;28;20152;-81
2022/01/15 03:28:41;;;;;;;7.97;3.50;;;;;;;4.28;72.30;101971.19;5047253;28;20041;-80
2022/01/15 03:31:08;;;;;;;5.83;3.27;;;;;;;4.49;72.01;102001.88;5031093;28;20533;-80
2022/01/15 03:33:35;;;;;;;12.23;3.03;;;;;;;4.47;71.70;101994.97;5047684;28;20103;-80
2022/01/15 03:36:06;;;;;;;6.60;3.10;;;;;;;4.57;72.09;102019.97;5047633;28;20080;-80
2022/01/15 03:38:33;;;;;;;5.87;2.50;;;;;;;4.41;72.04;101974.16;5048361;28;20382;-79
2022/01/15 03:40:59;;;;;;;4.37;3.20;;;;;;;4.12;71.74;101928.03;5048824;28;20419;-80
2022/01/15 03:43:28;;;;;;;4.80;3.10;;;;;;;4.61;71.67;102016.31;5030975;28;20651;-80
2022/01/15 03:45:55;;;;;;;2.20;2.10;;;;;;;4.37;71.94;101989.22;5031250;28;20057;-79
2022/01/15 03:48:24;;;;;;;5.47;2.93;;;;;;;4.60;71.48;102024.25;5047347;28;20451;-80
2022/01/15 03:50:51;;;;;;;2.90;2.50;;;;;;;4.58;72.15;102013.78;5048549;28;20049;-79
2022/01/15 03:53:20;;;;;;;2.70;2.50;;;;;;;4.69;71.89;102018.59;5047597;28;20067;-79
2022/01/15 03:55:46;;;;;;;3.00;2.37;;;;;;;4.41;71.58;101966.28;5047373;28;20045;-81
2022/01/15 03:58:13;;;;;;;3.23;2.33;;;;;;;4.77;71.51;102028.81;5047471;28;20135;-80
2022/01/15 04:00:45;;;;;;;3.10;2.53;;;;;;;4.59;70.63;101990.97;5046936;28;20080;-79
2022/01/15 04:03:12;;;;;;;2.42;2.03;;;;;;;4.91;70.37;102024.66;5046820;28;20482;-80
2022/01/15 04:05:39;;;;;;;2.23;2.03;;;;;;;4.59;69.95;101962.03;5046749;28;20131;-80
2022/01/15 04:08:07;;;;;;;2.07;1.87;;;;;;;4.98;70.20;102032.31;5046862;28;20045;-79
2022/01/15 04:10:34;;;;;;;2.40;2.20;;;;;;;3.24;69.89;101744.25;5046738;28;20104;-80
2022/01/15 04:13:04;;;;;;;2.73;2.53;;;;;;;4.90;69.63;102017.72;5048159;28;20080;-81
2022/01/15 04:15:30;;;;;;;5.07;2.23;;;;;;;5.03;69.84;102038.25;5048038;28;20135;-80
2022/01/15 04:17:58;;;;;;;2.67;2.43;;;;;;;4.58;70.42;101963.78;5046240;28;20408;-80
2022/01/15 04:20:25;;;;;;;2.37;2.17;;;;;;;4.97;70.21;102043.75;5046855;28;20040;-79
2022/01/15 04:22:53;;;;;;;2.50;2.30;;;;;;;4.96;70.40;102044.69;5046371;28;20153;-81
2022/01/15 04:25:21;;;;;;;3.40;2.10;;;;;;;4.89;70.21;102042.28;5030313;28;20056;-79
2022/01/15 04:27:47;;;;;;;2.47;1.80;;;;;;;4.63;70.38;102003.06;5029891;28;20041;-80
2022/01/15 04:30:16;;;;;;;2.67;2.10;;;;;;;4.72;70.67;102031.63;5030003;28;20080;-79
2022/01/15 04:32:42;;;;;;;3.07;2.50;;;;;;;4.03;70.21;101913.53;5046022;28;20131;-79
2022/01/15 04:35:09;;;;;;;2.50;1.97;;;;;;;4.91;70.38;102065.94;5046588;28;20422;-79
2022/01/15 04:37:44;;;;;;;2.43;2.03;;;;;;;4.48;70.46;102007.19;5046023;28;20052;-80
2022/01/15 04:40:13;;;;;;;3.80;2.23;;;;;;;4.32;70.12;101978.06;5029955;28;20041;-80
2022/01/15 04:42:41;;;;;;;3.67;2.43;;;;;;;4.78;70.23;102065.59;5045917;28;20140;-81
2022/01/15 04:45:08;;;;;;;2.83;2.17;;;;;;;4.47;71.04;102023.91;5047418;28;20049;-80
2022/01/15 04:47:36;;;;;;;5.73;2.00;;;;;;;4.64;71.31;102068.78;5046292;28;20056;-80
2022/01/15 04:50:05;;;;;;;2.20;2.00;;;;;;;4.58;71.18;102073.41;5046312;28;20115;-79
2022/01/15 04:52:34;;;;;;;3.83;2.33;;;;;;;4.57;71.63;102090.97;5046968;28;20543;-80
2022/01/15 04:55:03;;;;;;;3.60;2.27;;;;;;;3.98;71.27;102010.03;5046237;28;20061;-79
2022/01/15 04:57:32;;;;;;;2.40;2.13;;;;;;;3.78;72.00;101974.03;5046161;28;20090;-79
2022/01/15 04:59:58;;;;;;;2.63;1.90;;;;;;;4.33;71.60;102078.81;5045268;28;20044;-80
2022/01/15 05:02:26;;;;;;;2.53;2.30;;;;;;;4.41;71.84;102087.25;5028486;28;20052;-80
2022/01/15 05:04:54;;;;;;;2.60;2.40;;;;;;;4.35;72.12;102088.34;5045784;28;20053;-79
2022/01/15 05:07:22;;;;;;;3.20;2.53;;;;;;;3.86;72.14;102027.16;5045505;28;20044;-79
2022/01/15 05:09:49;;;;;;;3.40;2.50;;;;;;;4.44;72.08;102106.41;5029327;28;20051;-80
2022/01/15 05:12:29;;;;;;;2.83;2.53;;;;;;;4.38;71.97;102101.38;5046486;28;20117;-81
2022/01/15 05:14:55;;;;;;;3.77;2.43;;;;;;;4.33;72.44;102098.06;5031837;28;20084;-80
2022/01/15 05:17:22;;;;;;;3.27;2.47;;;;;;;4.43;71.76;102101.19;5053402;28;20149;-80
2022/01/15 05:19:49;;;;;;;3.03;2.47;;;;;;;4.33;72.55;102108.56;5064888;28;20064;-81
2022/01/15 05:22:17;;;;;;;3.70;2.80;;;;;;;4.11;71.96;102068.28;5049396;28;20132;-80
2022/01/15 05:24:45;;;;;;;2.83;2.40;;;;;;;4.39;71.66;102121.47;5029450;28;20077;-79
2022/01/15 05:27:14;;;;;;;2.97;2.40;;;;;;;4.12;72.12;102096.25;5028713;28;20508;-79
2022/01/15 05:29:41;;;;;;;4.90;2.60;;;;;;;4.14;72.58;102104.94;5028803;28;20591;-78
2022/01/15 05:32:08;;;;;;;3.60;2.73;;;;;;;4.21;72.35;102116.94;5045263;28;20485;-79
2022/01/15 05:34:38;;;;;;;3.23;2.87;;;;;;;4.17;72.61;102125.84;5045484;28;20045;-79
2022/01/15 05:37:05;;;;;;;5.97;3.37;;;;;;;3.82;73.20;102075.47;5045269;28;20507;-78
2022/01/15 05:39:32;;;;;;;2.70;2.50;;;;;;;4.07;72.78;102128.81;5045070;28;20053;-78
2022/01/15 05:41:58;;;;;;;3.40;3.00;;;;;;;3.86;73.08;102084.97;5028398;28;20142;-79
2022/01/15 05:44:25;;;;;;;4.17;2.80;;;;;;;3.93;73.16;102107.47;5044962;28;20041;-79
2022/01/15 05:46:52;;;;;;;3.70;3.17;;;;;;;3.79;73.43;102091.34;5044178;28;20500;-79
2022/01/15 05:49:18;;;;;;;5.20;3.40;;;;;;;3.55;73.31;102058.97;5026467;28;20049;-80
2022/01/15 05:51:45;;;;;;;5.83;3.87;;;;;;;3.92;73.87;102120.66;5026624;28;20081;-78
2022/01/15 05:54:12;;;;;;;5.93;3.70;;;;;;;2.49;73.20;101882.53;5043191;28;20140;-79
2022/01/15 05:56:39;;;;;;;5.60;3.70;;;;;;;3.46;73.14;102033.88;5026636;28;20055;-79
2022/01/15 05:59:07;;;;;;;6.30;4.27;;;;;;;3.95;73.59;102124.00;5043134;28;20338;-78
2022/01/15 06:01:35;;;;;;;6.17;3.03;;;;;;;3.99;73.34;102116.88;5023873;28;20044;-79
2022/01/15 06:04:03;;;;;;;5.50;3.70;;;;;;;3.91;73.19;102092.66;5024217;28;20551;-79
2022/01/15 06:06:33;;;;;;;3.93;2.67;;;;;;;3.94;73.20;102114.44;5006675;28;20247;-79
2022/01/15 06:09:02;;;;;;;5.80;3.30;;;;;;;3.63;73.69;102084.00;5020323;28;20056;-79
2022/01/15 06:11:30;;;;;;;4.83;3.40;;;;;;;3.80;73.78;102111.44;4987150;28;20357;-79
2022/01/15 06:13:57;;;;;;;5.20;3.20;;;;;;;3.79;73.81;102104.50;4989341;28;20058;-79
2022/01/15 06:16:23;;;;;;;3.67;3.30;;;;;;;3.73;74.19;102110.81;4991236;28;20080;-79
2022/01/15 06:18:50;;;;;;;4.37;3.97;;;;;;;3.80;74.46;102121.94;4991364;28;20378;-79
2022/01/15 06:21:17;;;;;;;5.80;4.17;;;;;;;3.45;74.27;102063.69;5007032;28;20046;-78
2022/01/15 06:23:44;;;;;;;3.43;3.13;;;;;;;3.70;74.51;102110.06;5007201;28;20062;-78
2022/01/15 06:26:11;;;;;;;4.27;3.43;;;;;;;3.25;73.74;102039.91;5007860;28;20493;-80
2022/01/15 06:28:38;;;;;;;4.60;3.50;;;;;;;3.79;73.97;102130.75;5007406;28;20327;-79
2022/01/15 06:31:04;;;;;;;5.77;4.50;;;;;;;3.80;74.17;102132.47;5007144;28;20046;-79
2022/01/15 06:33:32;;;;;;;5.10;4.60;;;;;;;3.78;74.59;102124.63;5013484;28;20424;-78
2022/01/15 06:35:59;;;;;;;5.47;3.63;;;;;;;3.73;74.63;102112.59;5026918;28;20559;-78
2022/01/15 06:38:27;;;;;;;6.20;4.27;;;;;;;3.67;75.17;102099.69;5010419;28;20104;-81
2022/01/15 06:40:54;;;;;;;5.13;4.33;;;;;;;3.17;75.02;102033.16;5027177;28;20293;-79
2022/01/15 06:43:21;;;;;;;5.30;4.00;;;;;;;2.81;74.68;101971.47;5010403;28;20107;-78
2022/01/15 06:45:48;;;;;;;5.07;4.20;;;;;;;3.75;74.54;102124.75;5028165;28;20053;-80
2022/01/15 06:48:14;;;;;;;4.37;3.97;;;;;;;3.57;74.72;102100.00;5010059;28;20524;-79
2022/01/15 06:50:42;;;;;;;6.10;4.10;;;;;;;3.36;75.53;102071.88;5009774;28;20147;-80
2022/01/15 06:53:09;;;;;;;7.37;4.03;;;;;;;3.62;75.46;102102.47;5026636;28;20137;-79
2022/01/15 06:55:35;;;;;;;5.40;4.10;;;;;;;3.66;75.27;102118.97;5026265;28;20049;-79
2022/01/15 06:58:02;;;;;;;5.10;4.70;;;;;;;3.71;75.35;102127.53;5026664;28;20056;-79
2022/01/15 07:00:29;;;;;;;6.10;4.63;;;;;;;3.14;75.17;102022.75;5009644;28;20135;-79
2022/01/15 07:03:00;;;;;;;4.90;4.23;;;;;;;3.51;74.97;102083.59;5040257;28;20297;-79
2022/01/15 07:05:27;;;;;;;6.57;4.53;;;;;;;3.81;75.34;102121.03;5029870;28;20099;-79
2022/01/15 07:07:54;;;;;;;4.10;3.47;;;;;;;3.76;75.73;102128.22;5025822;28;20053;-79
2022/01/15 07:10:20;;;;;;;4.70;4.20;;;;;;;3.82;75.21;102130.63;5040180;28;20516;-80
2022/01/15 07:12:49;;;;;;;5.80;3.67;;;;;;;3.42;75.81;102048.03;5045847;28;20487;-79
2022/01/15 07:15:16;;;;;;;5.73;3.73;;;;;;;3.87;75.47;102128.69;5045453;28;20484;-79
2022/01/15 07:17:46;;;;;;;3.67;3.37;;;;;;;3.88;74.92;102129.56;5045476;28;20132;-79
2022/01/15 07:20:15;;;;;;;4.30;3.90;;;;;;;3.91;75.20;102135.56;5028483;28;20309;-79
2022/01/15 07:22:42;;;;;;;7.30;4.33;;;;;;;3.88;74.88;102140.91;5013676;28;20141;-79
2022/01/15 07:25:10;;;;;;;4.90;3.47;;;;;;;3.93;74.89;102139.00;5038391;28;20061;-79
2022/01/15 07:27:37;;;;;;;5.57;4.30;;;;;;;3.94;75.13;102140.69;5025824;28;20049;-78
2022/01/15 07:30:09;;;;;;;4.80;4.30;;;;;;;3.98;74.98;102144.94;5046893;28;20045;-79
2022/01/15 07:32:36;;;;;;;4.40;4.00;;;;;;;3.77;74.70;102125.56;5045482;28;20041;-78
2022/01/15 07:35:03;;;;;;;5.47;3.83;;;;;;;3.97;74.55;102145.84;5029103;28;20065;-80
2022/01/15 07:37:31;;;;;;;5.20;4.70;;;;;;;3.74;74.81;102116.91;5045208;28;20096;-78
2022/01/15 07:39:59;;;;;;;5.83;4.87;;;;;;;3.50;75.07;102076.66;5044522;28;20408;-79
2022/01/15 07:42:28;;;;;;;6.57;5.10;;;;;;;3.93;75.01;102156.50;5028888;28;20059;-79
2022/01/15 07:44:54;;;;;;;6.93;6.20;;;;;;;3.17;74.89;102021.81;5028764;28;20072;-81
2022/01/15 07:47:21;;;;;;;7.23;5.80;;;;;;;3.95;74.77;102152.91;5029865;28;20128;-79
2022/01/15 07:49:48;;;;;;;7.60;5.60;;;;;;;3.92;74.95;102137.28;5044412;28;20045;-81
2022/01/15 07:52:14;;;;;;;7.73;5.17;;;;;;;4.06;74.57;102169.16;5045006;28;20128;-80
2022/01/15 07:54:41;;;;;;;7.13;5.10;;;;;;;4.15;74.76;102182.88;5030171;28;20059;-79
2022/01/15 07:57:08;;;;;;;7.07;4.93;;;;;;;4.21;74.73;102180.88;5045152;28;20103;-79
2022/01/15 07:59:35;;;;;;;6.53;5.47;;;;;;;3.97;74.58;102137.94;5046804;28;20484;-79
2022/01/15 08:02:02;;;;;;;9.13;7.73;;;;;;;4.13;74.44;102158.44;5046725;28;20150;-78
2022/01/15 08:04:32;;;;;;;7.07;6.33;;;;;;;4.27;74.22;102190.31;5047263;28;20041;-79
2022/01/15 08:06:59;;;;;;;5.83;5.23;;;;;;;4.14;74.54;102158.34;5030460;28;20063;-78
2022/01/15 08:09:28;;;;;;;5.87;5.27;;;;;;;4.24;74.64;102190.41;5048416;28;20137;-77
2022/01/15 08:11:55;;;;;;;6.20;4.83;;;;;;;4.28;75.16;102194.66;5047092;28;20135;-79
2022/01/15 08:14:22;;;;;;;6.17;4.67;;;;;;;4.31;74.90;102185.81;5030696;28;20063;-77
2022/01/15 08:16:49;;;;;;;5.77;4.77;;;;;;;4.34;74.82;102189.16;5047173;28;20080;-78
2022/01/15 08:19:15;;;;;;;7.07;5.17;;;;;;;4.29;74.88;102167.44;5047025;28;20095;-78
2022/01/15 08:21:42;;;;;;;6.90;4.23;;;;;;;4.46;74.06;102186.06;5030424;28;20497;-79
2022/01/15 08:24:10;;;;;;;7.10;4.37;;;;;;;4.53;74.10;102185.84;5047165;28;20083;-80
2022/01/15 08:26:36;;;;;;;5.60;4.63;;;;;;;4.59;74.34;102185.63;5030332;28;20088;-80
2022/01/15 08:29:06;;;;;;;6.37;4.40;;;;;;;4.67;74.01;102188.81;5030979;28;20045;-79
2022/01/15 08:31:32;;;;;;;5.43;4.83;;;;;;;4.75;73.36;102186.72;5030489;28;20140;-80
2022/01/15 08:33:59;;;;;;;5.80;5.20;;;;;;;4.53;72.97;102138.50;5048379;28;20146;-80
2022/01/15 08:36:26;;;;;;;6.30;5.10;;;;;;;4.57;72.29;102126.94;5029509;28;20475;-79
2022/01/15 08:38:53;;;;;;;5.93;5.33;;;;;;;4.65;72.32;102132.75;5047288;28;20049;-80
2022/01/15 08:41:23;;;;;;;6.07;5.47;;;;;;;5.13;71.74;102202.78;5048065;28;20459;-78
2022/01/15 08:43:50;;;;;;;6.10;5.30;;;;;;;5.06;71.57;102190.78;5043930;28;20091;-82
2022/01/15 08:46:18;;;;;;;11.77;4.80;;;;;;;5.31;70.73;102217.78;5045751;28;20056;-78
2022/01/15 08:48:45;;;;;;;6.10;5.03;;;;;;;5.37;70.96;102210.59;5048131;28;20052;-79
2022/01/15 08:51:12;;;;;;;4.63;4.23;;;;;;;5.31;70.63;102182.72;5048172;28;20103;-80
2022/01/15 08:53:41;;;;;;;6.17;4.60;;;;;;;5.04;71.35;102134.69;5031958;28;20127;-81
2022/01/15 08:56:08;;;;;;;5.23;4.73;;;;;;;5.59;70.21;102210.56;5030445;28;20288;-79
2022/01/15 08:58:35;;;;;;;5.55;4.93;;;;;;;5.63;70.61;102215.63;5046317;28;20534;-79
2022/01/15 09:01:04;;;;;;;9.57;5.20;;;;;;;5.50;69.74;102190.72;5046969;28;20147;-80
2022/01/15 09:03:36;;;;;;;6.97;4.40;;;;;;;5.64;70.48;102188.34;5046078;28;20409;-79
2022/01/15 09:06:03;;;;;;;4.10;3.78;;;;;;;5.81;67.84;102215.75;5045970;28;20103;-78
2022/01/15 09:08:30;;;;;;;3.92;3.47;;;;;;;5.63;67.15;102169.97;5029447;28;20063;-80
2022/01/15 09:10:57;;;;;;;4.03;3.63;;;;;;;5.46;66.84;102126.78;5028939;28;20067;-79
2022/01/15 09:13:23;;;;;;;4.78;4.10;;;;;;;5.69;66.39;102144.19;5029282;28;20716;-80
2022/01/15 09:15:50;;;;;;;4.17;3.73;;;;;;;6.10;66.25;102196.91;5029034;28;20128;-79
2022/01/15 09:18:19;;;;;;;5.93;4.15;;;;;;;6.22;66.59;102206.06;5045396;28;20267;-79
2022/01/15 09:20:47;;;;;;;5.63;4.85;;;;;;;6.24;66.47;102198.94;5028852;28;20088;-80
2022/01/15 09:23:13;;;;;;;5.45;4.97;;;;;;;6.03;66.60;102148.00;5044497;28;20147;-78
2022/01/15 09:25:40;;;;;;;6.20;5.03;;;;;;;6.34;66.01;102188.81;5029543;28;20059;-80
2022/01/15 09:30:55;;;;;;;5.72;4.78;;;;;;;6.44;65.89;102184.81;5047032;28;20481;-79
2022/01/15 09:33:22;;;;;;;6.10;4.72;;;;;;;6.64;65.52;102197.94;5046924;28;20059;-79
2022/01/15 09:35:49;;;;;;;7.93;5.05;;;;;;;6.75;66.18;102192.16;5029213;28;20377;-78
2022/01/15 09:38:17;;;;;;;6.05;4.78;;;;;;;6.97;65.71;102189.34;5047073;28;20134;-80
2022/01/15 09:40:44;;;;;;;7.97;4.82;;;;;;;6.96;66.04;102171.78;5029766;28;20095;-80
2022/01/15 09:43:15;;;;;;;6.75;4.57;;;;;;;7.25;66.57;102201.19;5045819;28;20410;-75
2022/01/15 09:45:45;;;;;;;6.60;4.72;;;;;;;7.10;64.92;102157.06;5046766;28;20143;-79
2022/01/15 09:48:15;;;;;;;8.13;4.68;;;;;;;7.18;65.35;102165.44;5046184;28;20525;-79
2022/01/15 09:50:44;;;;;;;5.70;4.57;;;;;;;7.21;65.24;102160.03;5028875;28;20313;-79
2022/01/15 09:53:14;;;;;;;11.25;6.57;;;;;;;7.54;65.21;102198.88;5028760;28;20443;-81
2022/01/15 09:55:40;;;;;;;7.75;5.82;;;;;;;7.46;65.95;102176.34;5045383;28;20076;-79
2022/01/15 09:58:07;;;;;;;10.95;5.68;;;;;;;7.65;64.89;102178.06;5045768;28;20041;-87
2022/01/15 10:00:35;;;;;;;8.65;5.53;;;;;;;7.90;64.34;102191.69;5046705;28;20480;-80
2022/01/15 10:03:02;;;;;;;42.65;9.65;;;;;;;7.76;66.71;102141.31;5025244;28;20097;-79
2022/01/15 10:05:29;;;;;;;16.65;6.40;;;;;;;8.16;65.79;102168.31;5025418;28;20136;-80
2022/01/15 10:08:02;;;;;;;6.85;5.15;;;;;;;8.36;62.42;102177.81;5026133;28;20053;-80
2022/01/15 10:10:36;;;;;;;6.47;5.45;;;;;;;7.02;61.62;101952.31;5009597;28;20046;-79
2022/01/15 10:13:17;;;;;;;5.95;5.18;;;;;;;8.42;61.71;102179.28;5021401;28;20516;-80
2022/01/15 10:15:46;;;;;;;9.02;5.10;;;;;;;8.39;63.15;102164.41;4988950;28;20113;-79
2022/01/15 10:18:18;;;;;;;7.05;5.60;;;;;;;8.51;61.83;102177.00;5005377;28;20046;-78
2022/01/15 10:20:45;;;;;;;5.88;5.28;;;;;;;8.54;60.81;102170.69;5005516;28;20262;-79
2022/01/15 10:23:17;;;;;;;13.40;5.97;;;;;;;8.56;62.17;102158.22;4988659;28;20113;-80
2022/01/15 10:25:45;;;;;;;9.60;4.75;;;;;;;8.63;61.57;102159.56;5006184;28;20053;-80
2022/01/15 10:28:11;;;;;;;21.23;7.43;;;;;;;8.86;62.11;102171.53;4988871;28;20693;-79
2022/01/15 10:30:41;;;;;;;7.55;5.65;;;;;;;8.72;60.57;102137.88;5005144;28;20160;-80
2022/01/15 10:33:09;;;;;;;20.35;7.00;;;;;;;8.77;59.90;102140.28;4989277;28;20054;-80
2022/01/15 10:35:41;;;;;;;13.68;6.45;;;;;;;8.71;60.43;102085.88;4989136;28;20077;-80
2022/01/15 10:38:17;;;;;;;5.72;4.10;;;;;;;9.17;58.54;102125.59;5005201;28;20121;-80
2022/01/15 10:40:55;;;;;;;31.65;10.15;;;;;;;9.58;60.96;102159.38;5005103;28;20069;-81
2022/01/15 10:43:33;;;;;;;22.75;5.07;;;;;;;9.80;59.32;102158.91;5005498;28;20141;-80
2022/01/15 10:46:01;;;;;;;6.43;3.45;;;;;;;8.31;56.75;101912.63;5006465;28;20145;-81
2022/01/15 10:48:34;;;;;;;4.60;3.40;;;;;;;9.82;57.80;102135.81;4989182;28;20524;-81
2022/01/15 10:51:08;;;;;;;9.40;3.88;;;;;;;10.01;58.19;102159.41;5005068;28;20084;-83
2022/01/15 10:53:37;;;;;;;7.05;3.45;;;;;;;9.88;56.83;102139.03;4989045;28;20079;-82
2022/01/15 10:56:10;;;;;;;6.38;3.67;;;;;;;9.65;55.53;102112.13;5005108;28;20357;-82
2022/01/15 10:58:37;;;;;;;7.45;2.95;;;;;;;9.93;56.03;102151.09;4988796;28;20050;-83
2022/01/15 11:01:05;;;;;;;6.18;3.55;;;;;;;9.75;55.20;102118.56;5007107;28;20057;-82
2022/01/15 11:03:40;;;;;;;4.78;2.75;;;;;;;9.88;56.03;102129.28;5007156;28;20705;-83
2022/01/15 11:06:07;;;;;;;2.83;2.63;;;;;;;10.08;55.37;102120.09;4990458;28;20125;-82
2022/01/15 11:08:37;;;;;;;6.07;2.60;;;;;;;10.47;55.15;102148.59;5009364;28;20309;-83
2022/01/15 11:11:08;;;;;;;5.38;3.25;;;;;;;10.73;53.83;102145.19;5027767;28;20386;-83
2022/01/15 11:13:39;;;;;;;4.95;3.00;;;;;;;10.89;53.25;102128.16;5011483;28;20128;-82
2022/01/15 11:16:08;;;;;;;3.58;2.78;;;;;;;11.12;51.94;102139.09;5029080;28;20059;-83
2022/01/15 11:18:37;;;;;;;4.90;3.25;;;;;;;10.89;51.83;102064.38;5027923;28;20049;-82
2022/01/15 11:21:11;;;;;;;4.65;3.15;;;;;;;11.36;50.50;102119.75;5011157;28;20108;-82
2022/01/15 11:23:40;;;;;;;5.78;3.85;;;;;;;11.46;51.63;102120.84;5011424;28;20140;-83
2022/01/15 11:26:15;;;;;;;6.03;3.63;;;;;;;11.41;51.13;102118.50;5029340;28;20288;-82
2022/01/15 11:28:45;;;;;;;5.53;4.00;;;;;;;11.30;51.34;102108.59;5027878;28;20053;-82
2022/01/15 11:31:19;;;;;;;5.57;4.32;;;;;;;11.27;50.85;102122.09;5027460;28;20045;-83
2022/01/15 11:33:49;;;;;;;7.00;4.47;;;;;;;11.11;49.66;102116.09;5027631;28;20069;-83
2022/01/15 11:36:29;;;;;;;6.18;5.18;;;;;;;10.93;50.67;102114.69;5027936;28;20060;-83
2022/01/15 11:38:57;;;;;;;5.47;4.90;;;;;;;9.97;50.90;101963.38;5027905;28;20050;-82
2022/01/15 11:41:26;;;;;;;6.60;5.90;;;;;;;10.80;50.66;102119.94;5011314;28;20236;-81
2022/01/15 11:43:55;;;;;;;5.93;5.15;;;;;;;10.74;50.65;102118.56;5027716;28;20054;-82
2022/01/15 11:46:29;;;;;;;7.82;6.63;;;;;;;10.43;50.54;102078.03;5011460;28;20053;-81
2022/01/15 11:49:27;;;;;;;10.55;6.43;;;;;;;10.50;50.60;102109.53;5011040;28;20060;-81
2022/01/15 11:52:12;;;;;;;8.95;6.55;;;;;;;10.21;50.92;102067.09;5027386;28;20065;-83
2022/01/15 11:54:59;;;;;;;9.57;6.28;;;;;;;10.15;51.06;102072.81;5028652;28;20461;-82
2022/01/15 11:57:30;;;;;;;8.80;6.80;;;;;;;9.77;51.64;102015.91;5027373;28;20052;-84